Time;durP1;ratioP1;P1;durP2;ratioP2;P2;SDS_P1;SDS_P2;PMS_P1;PMS_P2;Temp;Humidity;BMP_temperature;BMP_pressure;BME280_temperature;BME280_humidity;BME280_pressure;Samples;Min_cycle;Max_cycle;Signal;HPM_P1;HPM_P2
2024/01/04 00:01:27;;;;;;;996.60;134.18;;;;;;;;;;4876280;28;20843;-85
2024/01/04 00:03:54;;;;;;;977.22;126.50;;;;;;;;;;4875493;28;20042;-85
2024/01/04 00:06:21;;;;;;;976.30;122.78;;;;;;;;;;4877282;28;20051;-85
2024/01/04 00:08:47;;;;;;;988.00;125.25;;;;;;;;;;4874509;28;20408;-85
2024/01/04 00:11:15;;;;;;;982.88;124.43;;;;;;;;;;4873281;28;20049;-85
2024/01/04 00:13:41;;;;;;;958.17;119.78;;;;;;;;;;4872091;28;20055;-85
2024/01/04 00:16:11;;;;;;;983.03;120.68;;;;;;;;;;4868390;28;20069;-84
2024/01/04 00:18:38;;;;;;;959.08;120.47;;;;;;;;;;4865205;28;20035;-85
2024/01/04 00:21:05;;;;;;;945.05;119.30;;;;;;;;;;4864379;28;20134;-85
2024/01/04 00:23:34;;;;;;;982.95;123.28;;;;;;;;;;4865444;28;20035;-85
2024/01/04 00:26:01;;;;;;;989.38;123.38;;;;;;;;;;4865688;28;20962;-87
2024/01/04 00:28:28;;;;;;;951.67;119.82;;;;;;;;;;4864150;28;21183;-87
2024/01/04 00:30:54;;;;;;;1019.05;127.80;;;;;;;;;;4872594;28;20146;-84
2024/01/04 00:33:21;;;;;;;979.75;124.25;;;;;;;;;;4870963;28;20431;-85
2024/01/04 00:35:48;;;;;;;972.15;122.47;;;;;;;;;;4870807;28;20415;-85
2024/01/04 00:38:15;;;;;;;978.22;118.22;;;;;;;;;;4878645;28;20051;-85
2024/01/04 00:40:41;;;;;;;994.65;115.07;;;;;;;;;;4860984;28;20898;-85
2024/01/04 00:43:09;;;;;;;986.67;111.50;;;;;;;;;;4876659;28;20047;-85
2024/01/04 00:45:36;;;;;;;955.25;104.82;;;;;;;;;;4867962;28;20885;-85
2024/01/04 00:48:03;;;;;;;950.15;98.85;;;;;;;;;;4880886;28;20042;-84
2024/01/04 00:50:29;;;;;;;934.88;94.78;;;;;;;;;;4868242;28;20599;-85
2024/01/04 00:52:56;;;;;;;924.85;93.47;;;;;;;;;;4854335;28;20057;-85
2024/01/04 00:55:34;;;;;;;941.25;92.93;;;;;;;;;;4878066;28;20047;-84
2024/01/04 00:58:05;;;;;;;941.25;91.28;;;;;;;;;;4871243;28;20043;-84
2024/01/04 01:00:32;;;;;;;938.35;90.00;;;;;;;;;;4871291;28;20039;-85
2024/01/04 01:02:59;;;;;;;944.65;90.88;;;;;;;;;;4880554;28;20125;-84
2024/01/04 01:05:26;;;;;;;930.70;89.00;;;;;;;;;;4875803;28;20364;-85
2024/01/04 01:07:53;;;;;;;961.60;92.05;;;;;;;;;;4868836;28;20421;-85
2024/01/04 01:10:20;;;;;;;925.13;88.20;;;;;;;;;;4878194;28;20118;-85
2024/01/04 01:12:46;;;;;;;941.35;88.50;;;;;;;;;;4877206;28;20142;-84
2024/01/04 01:15:13;;;;;;;955.45;90.22;;;;;;;;;;4870821;28;20043;-84
2024/01/04 01:17:40;;;;;;;957.47;91.30;;;;;;;;;;4879366;28;20045;-85
2024/01/04 01:20:08;;;;;;;931.63;87.95;;;;;;;;;;4878141;28;20027;-84
2024/01/04 01:22:35;;;;;;;961.15;90.97;;;;;;;;;;4866099;28;21023;-84
2024/01/04 01:25:01;;;;;;;947.33;90.00;;;;;;;;;;4889186;28;20042;-84
2024/01/04 01:27:28;;;;;;;936.17;88.07;;;;;;;;;;4886741;28;20050;-84
2024/01/04 01:29:55;;;;;;;948.85;89.97;;;;;;;;;;4881300;28;20054;-84
2024/01/04 01:32:21;;;;;;;957.53;90.90;;;;;;;;;;4871240;28;20046;-84
2024/01/04 01:34:48;;;;;;;956.08;91.03;;;;;;;;;;4875303;28;20114;-84
2024/01/04 01:37:15;;;;;;;980.53;93.70;;;;;;;;;;4873688;28;20043;-84
2024/01/04 01:39:42;;;;;;;917.15;86.32;;;;;;;;;;4884094;28;20038;-84
2024/01/04 01:42:09;;;;;;;915.08;86.25;;;;;;;;;;4862588;28;21050;-84
2024/01/04 01:44:35;;;;;;;939.83;87.97;;;;;;;;;;4860808;28;20667;-85
2024/01/04 01:47:02;;;;;;;923.15;86.57;;;;;;;;;;4887882;28;20418;-84
2024/01/04 01:49:29;;;;;;;922.38;86.68;;;;;;;;;;4888140;28;20065;-84
2024/01/04 01:51:56;;;;;;;931.40;87.53;;;;;;;;;;4879612;28;20062;-85
2024/01/04 01:54:23;;;;;;;934.17;88.63;;;;;;;;;;4886521;28;20046;-85
2024/01/04 01:56:50;;;;;;;945.10;89.30;;;;;;;;;;4865246;28;20217;-84
2024/01/04 01:59:17;;;;;;;959.47;91.25;;;;;;;;;;4863165;28;20047;-84
2024/01/04 02:01:52;;;;;;;762.08;67.95;;;;;;;;;;5148714;22;20057;-88
2024/01/04 02:04:19;;;;;;;755.47;67.97;;;;;;;;;;4924222;28;20864;-88
2024/01/04 02:06:46;;;;;;;776.25;69.22;;;;;;;;;;4924475;28;20037;-88
2024/01/04 02:09:13;;;;;;;743.03;65.05;;;;;;;;;;4945920;28;20111;-88
2024/01/04 02:11:40;;;;;;;749.15;67.25;;;;;;;;;;4909505;28;20033;-88
2024/01/04 02:14:07;;;;;;;743.08;66.15;;;;;;;;;;4926126;28;21106;-87
2024/01/04 02:16:33;;;;;;;786.70;70.93;;;;;;;;;;4935581;28;20119;-87
2024/01/04 02:19:00;;;;;;;771.05;68.97;;;;;;;;;;4919941;28;20152;-86
2024/01/04 02:21:27;;;;;;;797.05;71.70;;;;;;;;;;4917011;28;20038;-86
2024/01/04 02:23:54;;;;;;;756.28;66.93;;;;;;;;;;4922779;28;20045;-87
2024/01/04 02:26:21;;;;;;;743.72;65.78;;;;;;;;;;4910630;28;21225;-87
2024/01/04 02:28:49;;;;;;;743.85;65.80;;;;;;;;;;4927199;28;20046;-87
2024/01/04 02:31:15;;;;;;;795.55;71.25;;;;;;;;;;4909397;28;20837;-87
2024/01/04 02:33:42;;;;;;;769.78;68.05;;;;;;;;;;4923855;28;20041;-87
2024/01/04 02:36:09;;;;;;;766.35;67.50;;;;;;;;;;4902361;28;21202;-86
2024/01/04 02:38:36;;;;;;;784.45;70.18;;;;;;;;;;4904383;28;20844;-86
2024/01/04 02:41:03;;;;;;;770.97;68.70;;;;;;;;;;4917899;28;20204;-86
2024/01/04 02:43:29;;;;;;;765.22;68.43;;;;;;;;;;4938479;28;20152;-87
2024/01/04 02:45:56;;;;;;;795.03;71.38;;;;;;;;;;4918870;28;20054;-87
2024/01/04 02:48:23;;;;;;;772.15;69.15;;;;;;;;;;4918921;28;21095;-86
2024/01/04 02:50:50;;;;;;;755.78;67.32;;;;;;;;;;4911025;28;21039;-86
2024/01/04 02:53:17;;;;;;;792.20;71.32;;;;;;;;;;4918897;28;20041;-86
2024/01/04 02:55:43;;;;;;;764.05;68.72;;;;;;;;;;4905922;28;20041;-87
2024/01/04 02:58:12;;;;;;;755.55;67.82;;;;;;;;;;4906445;28;20889;-87
2024/01/04 03:00:39;;;;;;;783.97;70.60;;;;;;;;;;4919108;28;20041;-86
2024/01/04 03:03:06;;;;;;;764.28;68.47;;;;;;;;;;4922413;28;20135;-86
2024/01/04 03:05:33;;;;;;;766.28;68.90;;;;;;;;;;4919508;28;20042;-89
2024/01/04 03:07:59;;;;;;;779.20;69.10;;;;;;;;;;4939746;28;20122;-87
2024/01/04 03:10:26;;;;;;;798.53;71.80;;;;;;;;;;4922255;28;20616;-87
2024/01/04 03:12:53;;;;;;;774.85;70.25;;;;;;;;;;4922850;28;20045;-87
2024/01/04 03:15:19;;;;;;;779.20;70.15;;;;;;;;;;4923069;28;20900;-87
2024/01/04 03:17:46;;;;;;;797.03;72.03;;;;;;;;;;4922006;28;20044;-87
2024/01/04 03:20:13;;;;;;;780.03;70.18;;;;;;;;;;4918572;28;20034;-87
2024/01/04 03:22:40;;;;;;;801.97;72.13;;;;;;;;;;4904227;28;20038;-87
2024/01/04 03:25:09;;;;;;;776.58;69.38;;;;;;;;;;4937261;28;21341;-87
2024/01/04 03:27:36;;;;;;;784.65;70.00;;;;;;;;;;4902933;28;20145;-87
2024/01/04 03:30:03;;;;;;;785.72;70.30;;;;;;;;;;4922342;28;20037;-87
2024/01/04 03:32:30;;;;;;;778.65;70.13;;;;;;;;;;4905797;28;20123;-87
2024/01/04 03:34:57;;;;;;;781.55;70.25;;;;;;;;;;4924015;28;20063;-87
2024/01/04 03:37:24;;;;;;;800.90;72.57;;;;;;;;;;4925383;28;20165;-87
2024/01/04 03:39:50;;;;;;;781.65;70.25;;;;;;;;;;4908891;28;20053;-87
2024/01/04 03:42:17;;;;;;;773.45;69.82;;;;;;;;;;4904307;28;20945;-87
2024/01/04 03:44:44;;;;;;;784.90;71.25;;;;;;;;;;4923161;28;20041;-88
2024/01/04 03:47:11;;;;;;;742.20;65.82;;;;;;;;;;4926369;28;21026;-88
2024/01/04 03:49:38;;;;;;;694.20;60.45;;;;;;;;;;4913322;28;20042;-88
2024/01/04 03:52:05;;;;;;;709.13;61.90;;;;;;;;;;4921939;28;20053;-87
2024/01/04 03:54:31;;;;;;;624.00;53.03;;;;;;;;;;4935912;28;20096;-88
2024/01/04 03:56:58;;;;;;;609.33;53.17;;;;;;;;;;4943584;28;20052;-88
2024/01/04 03:59:25;;;;;;;759.03;68.47;;;;;;;;;;4939235;28;20173;-87
2024/01/04 04:01:51;;;;;;;701.95;62.55;;;;;;;;;;4931608;28;20053;-87
2024/01/04 04:04:18;;;;;;;703.75;63.40;;;;;;;;;;4935211;28;20126;-87
2024/01/04 04:06:45;;;;;;;677.92;60.47;;;;;;;;;;4935335;28;20041;-88
2024/01/04 04:09:12;;;;;;;779.80;72.30;;;;;;;;;;4930895;28;20084;-87
2024/01/04 04:11:39;;;;;;;681.13;59.35;;;;;;;;;;4919871;28;20045;-87
2024/01/04 04:14:07;;;;;;;689.13;60.22;;;;;;;;;;4930194;28;20048;-87
2024/01/04 04:16:38;;;;;;;725.50;64.65;;;;;;;;;;4931521;28;20037;-87
2024/01/04 04:19:05;;;;;;;695.63;62.85;;;;;;;;;;4951904;28;20044;-88
2024/01/04 04:21:31;;;;;;;682.50;59.72;;;;;;;;;;4920875;28;20037;-88
2024/01/04 04:23:58;;;;;;;717.47;64.68;;;;;;;;;;4919371;28;20781;-88
2024/01/04 04:26:25;;;;;;;649.30;58.10;;;;;;;;;;4952653;28;20026;-88
2024/01/04 04:28:51;;;;;;;664.28;58.83;;;;;;;;;;4956728;28;20057;-89
2024/01/04 04:31:19;;;;;;;665.05;59.03;;;;;;;;;;4942139;28;20038;-89
2024/01/04 04:33:46;;;;;;;639.50;56.30;;;;;;;;;;4928311;28;20056;-88
2024/01/04 04:36:13;;;;;;;642.72;57.28;;;;;;;;;;4941895;28;20048;-89
2024/01/04 04:38:43;;;;;;;729.95;65.35;;;;;;;;;;4940885;28;20084;-89
2024/01/04 04:41:10;;;;;;;653.50;57.20;;;;;;;;;;4937243;28;20056;-89
2024/01/04 04:43:37;;;;;;;687.53;60.95;;;;;;;;;;4919018;28;20158;-88
2024/01/04 04:46:09;;;;;;;683.30;60.35;;;;;;;;;;4918089;28;20052;-88
2024/01/04 04:48:37;;;;;;;697.70;62.17;;;;;;;;;;4953885;28;20575;-88
2024/01/04 04:51:04;;;;;;;665.85;57.70;;;;;;;;;;4920306;28;20044;-89
2024/01/04 04:53:31;;;;;;;676.10;58.67;;;;;;;;;;4927581;28;20198;-89
2024/01/04 04:55:58;;;;;;;658.05;57.33;;;;;;;;;;4939072;28;20037;-88
2024/01/04 04:58:25;;;;;;;633.10;54.67;;;;;;;;;;4939915;28;20056;-88
2024/01/04 05:00:52;;;;;;;677.42;60.10;;;;;;;;;;4924367;28;20799;-89
2024/01/04 05:03:18;;;;;;;682.35;60.30;;;;;;;;;;4939479;28;20045;-89
2024/01/04 05:05:45;;;;;;;616.72;53.80;;;;;;;;;;4924351;28;20045;-89
2024/01/04 05:08:12;;;;;;;606.25;52.17;;;;;;;;;;4943451;28;20119;-89
2024/01/04 05:10:38;;;;;;;632.78;54.80;;;;;;;;;;4943312;28;20144;-88
2024/01/04 05:13:05;;;;;;;652.50;57.25;;;;;;;;;;4939747;28;20049;-89
2024/01/04 05:15:32;;;;;;;705.38;62.63;;;;;;;;;;4918169;28;20110;-88
2024/01/04 05:17:59;;;;;;;719.33;63.97;;;;;;;;;;4934691;28;20203;-89
2024/01/04 05:20:27;;;;;;;734.97;65.60;;;;;;;;;;4933327;28;20465;-88
2024/01/04 05:22:54;;;;;;;678.85;58.78;;;;;;;;;;4933779;28;20216;-89
2024/01/04 05:25:21;;;;;;;754.30;66.57;;;;;;;;;;4931483;28;20120;-89
2024/01/04 05:27:48;;;;;;;727.30;64.05;;;;;;;;;;4931127;28;20140;-88
2024/01/04 05:30:14;;;;;;;736.08;64.13;;;;;;;;;;4944977;28;20072;-88
2024/01/04 05:32:41;;;;;;;749.65;66.20;;;;;;;;;;4944321;28;20099;-87
2024/01/04 05:35:08;;;;;;;733.88;64.82;;;;;;;;;;4943156;28;20034;-89
2024/01/04 05:37:35;;;;;;;771.20;67.75;;;;;;;;;;4942841;28;21004;-88
2024/01/04 05:40:03;;;;;;;794.80;71.22;;;;;;;;;;4940711;28;20101;-88
2024/01/04 05:42:30;;;;;;;706.40;62.45;;;;;;;;;;4940805;28;20037;-89
2024/01/04 05:44:56;;;;;;;205.50;18.25;;;;;;;;;;4995542;28;20041;-89
2024/01/04 05:47:23;;;;;;;133.45;13.10;;;;;;;;;;4993503;28;20061;-89
2024/01/04 05:49:50;;;;;;;718.35;63.22;;;;;;;;;;4969209;28;20041;-87
2024/01/04 05:52:17;;;;;;;34.10;6.53;;;;;;;;;;4989595;28;20026;-86
2024/01/04 05:54:43;;;;;;;37.90;6.13;;;;;;;;;;4988793;28;20037;-86
2024/01/04 05:57:10;;;;;;;35.50;5.50;;;;;;;;;;5005915;28;20366;-87
2024/01/04 05:59:37;;;;;;;261.52;22.15;;;;;;;;;;4999993;28;20041;-91
2024/01/04 06:02:03;;;;;;;37.03;6.20;;;;;;;;;;5009253;28;20077;-87
2024/01/04 06:04:30;;;;;;;64.55;8.65;;;;;;;;;;5010328;28;20868;-88
2024/01/04 06:06:58;;;;;;;17.15;5.05;;;;;;;;;;5010558;28;20041;-87
2024/01/04 06:09:25;;;;;;;49.25;7.38;;;;;;;;;;4993046;28;20042;-86
2024/01/04 06:11:52;;;;;;;82.93;8.57;;;;;;;;;;5006331;28;20108;-87
2024/01/04 06:14:19;;;;;;;420.65;37.33;;;;;;;;;;4996823;28;20125;-88
2024/01/04 06:16:46;;;;;;;69.07;8.32;;;;;;;;;;5009823;28;20550;-87
2024/01/04 06:19:12;;;;;;;25.92;6.07;;;;;;;;;;4989304;28;20041;-87
2024/01/04 06:21:39;;;;;;;26.67;7.38;;;;;;;;;;5007195;28;20080;-86
2024/01/04 06:24:06;;;;;;;180.60;17.63;;;;;;;;;;4989798;28;20042;-87
2024/01/04 06:26:33;;;;;;;270.02;27.10;;;;;;;;;;4990094;28;20050;-87
2024/01/04 06:28:59;;;;;;;195.75;19.33;;;;;;;;;;4992196;28;20042;-85
2024/01/04 06:31:26;;;;;;;34.33;6.60;;;;;;;;;;5001125;28;20030;-86
2024/01/04 06:33:53;;;;;;;31.55;9.95;;;;;;;;;;5010893;28;20045;-86
2024/01/04 06:36:20;;;;;;;47.95;7.15;;;;;;;;;;5009579;28;20445;-86
2024/01/04 06:38:47;;;;;;;49.33;7.22;;;;;;;;;;5009161;28;20034;-86
2024/01/04 06:41:14;;;;;;;19.77;6.50;;;;;;;;;;5009603;28;20504;-86
2024/01/04 06:43:41;;;;;;;40.13;8.35;;;;;;;;;;5010607;28;20034;-85
2024/01/04 06:46:07;;;;;;;60.45;11.35;;;;;;;;;;5014509;28;20511;-86
2024/01/04 06:48:38;;;;;;;59.83;10.10;;;;;;;;;;5010857;28;20040;-86
2024/01/04 06:51:05;;;;;;;31.23;7.97;;;;;;;;;;5013011;28;20641;-86
2024/01/04 06:53:32;;;;;;;55.20;8.57;;;;;;;;;;5013387;28;20044;-85
2024/01/04 06:55:59;;;;;;;45.60;7.80;;;;;;;;;;5013194;28;20042;-85
2024/01/04 06:58:25;;;;;;;22.83;5.50;;;;;;;;;;5013346;28;20049;-86
2024/01/04 07:00:53;;;;;;;30.65;6.47;;;;;;;;;;5014191;28;20088;-86
2024/01/04 07:03:20;;;;;;;60.22;8.02;;;;;;;;;;5013263;28;20037;-86
2024/01/04 07:05:47;;;;;;;27.52;6.53;;;;;;;;;;5015732;28;20045;-86
2024/01/04 07:08:14;;;;;;;29.73;6.43;;;;;;;;;;5033792;28;20480;-86
2024/01/04 07:10:41;;;;;;;60.28;8.00;;;;;;;;;;5016285;28;20532;-86
2024/01/04 07:13:07;;;;;;;14.38;5.25;;;;;;;;;;5033956;28;20037;-86
2024/01/04 07:15:34;;;;;;;27.55;6.13;;;;;;;;;;5034155;28;20056;-85
2024/01/04 07:18:01;;;;;;;63.30;9.15;;;;;;;;;;5016149;28;20068;-85
2024/01/04 07:20:28;;;;;;;16.48;6.28;;;;;;;;;;5033422;28;20099;-86
2024/01/04 07:22:55;;;;;;;26.85;6.63;;;;;;;;;;5034168;28;20499;-85
2024/01/04 07:25:22;;;;;;;28.20;7.45;;;;;;;;;;5031380;28;20083;-85
2024/01/04 07:27:49;;;;;;;39.15;7.70;;;;;;;;;;5016066;28;20472;-86
2024/01/04 07:30:16;;;;;;;25.90;8.60;;;;;;;;;;5016012;28;20041;-86
2024/01/04 07:32:43;;;;;;;50.42;10.68;;;;;;;;;;5033892;28;20039;-86
2024/01/04 07:35:12;;;;;;;24.90;8.38;;;;;;;;;;5011932;28;20121;-85
2024/01/04 07:37:43;;;;;;;31.25;8.23;;;;;;;;;;5013879;28;20033;-85
2024/01/04 07:40:11;;;;;;;32.75;7.78;;;;;;;;;;5031815;28;20065;-85
2024/01/04 07:42:38;;;;;;;35.45;7.35;;;;;;;;;;5032998;28;20383;-86
2024/01/04 07:45:05;;;;;;;26.92;7.55;;;;;;;;;;5000080;28;20050;-86
2024/01/04 07:47:36;;;;;;;35.97;7.47;;;;;;;;;;5015652;28;20041;-86
2024/01/04 07:50:04;;;;;;;86.55;9.48;;;;;;;;;;5033010;28;20049;-86
2024/01/04 07:52:31;;;;;;;31.35;7.75;;;;;;;;;;5015512;28;20044;-86
2024/01/04 07:54:58;;;;;;;24.52;6.65;;;;;;;;;;5014808;28;20384;-86
2024/01/04 07:57:28;;;;;;;61.92;9.57;;;;;;;;;;5016135;28;20045;-86
2024/01/04 07:59:54;;;;;;;50.30;9.35;;;;;;;;;;5032996;28;20033;-86
2024/01/04 08:02:21;;;;;;;53.80;8.27;;;;;;;;;;4996532;28;20057;-86
2024/01/04 08:04:48;;;;;;;34.78;8.82;;;;;;;;;;4993397;28;20050;-86
2024/01/04 08:07:16;;;;;;;33.90;7.80;;;;;;;;;;4993541;28;20058;-86
2024/01/04 08:09:43;;;;;;;30.52;7.82;;;;;;;;;;4992357;28;20137;-86
2024/01/04 08:12:12;;;;;;;33.33;8.52;;;;;;;;;;4993337;28;20342;-86
2024/01/04 08:14:39;;;;;;;56.60;9.02;;;;;;;;;;4976289;28;20038;-86
2024/01/04 08:17:06;;;;;;;38.63;8.02;;;;;;;;;;4992429;28;20084;-85
2024/01/04 08:19:33;;;;;;;27.92;6.88;;;;;;;;;;4993269;28;20485;-85
2024/01/04 08:21:59;;;;;;;55.97;9.77;;;;;;;;;;4992596;28;20477;-85
2024/01/04 08:24:26;;;;;;;36.92;8.10;;;;;;;;;;4993468;28;20030;-85
2024/01/04 08:26:53;;;;;;;49.03;8.00;;;;;;;;;;4993095;28;20045;-86
2024/01/04 08:29:20;;;;;;;54.63;8.10;;;;;;;;;;4991446;28;21086;-86
2024/01/04 08:31:47;;;;;;;28.50;5.82;;;;;;;;;;4991846;28;20049;-85
2024/01/04 08:34:14;;;;;;;32.53;6.53;;;;;;;;;;4989008;28;20045;-86
2024/01/04 08:36:41;;;;;;;70.35;9.00;;;;;;;;;;4991757;28;20042;-85
2024/01/04 08:39:07;;;;;;;68.40;9.40;;;;;;;;;;4993019;28;20469;-86
2024/01/04 08:41:34;;;;;;;25.38;7.63;;;;;;;;;;4991601;28;20034;-86
2024/01/04 08:44:01;;;;;;;37.58;8.25;;;;;;;;;;4993004;28;20113;-86
2024/01/04 08:46:27;;;;;;;34.63;6.63;;;;;;;;;;4992928;28;20042;-85
2024/01/04 08:48:54;;;;;;;22.38;6.15;;;;;;;;;;4992273;28;20101;-86
2024/01/04 08:51:22;;;;;;;71.97;7.97;;;;;;;;;;4991508;28;20046;-86
2024/01/04 08:53:49;;;;;;;17.38;5.97;;;;;;;;;;4992658;28;20045;-86
2024/01/04 08:56:19;;;;;;;21.58;5.43;;;;;;;;;;4988272;28;20038;-86
2024/01/04 08:58:46;;;;;;;71.03;8.90;;;;;;;;;;4991510;28;20044;-86
2024/01/04 09:01:13;;;;;;;23.20;6.75;;;;;;;;;;4987723;28;20481;-86
2024/01/04 09:03:40;;;;;;;28.30;6.38;;;;;;;;;;4973682;28;20042;-86
2024/01/04 09:06:08;;;;;;;48.13;7.90;;;;;;;;;;5004051;28;20058;-86
2024/01/04 09:08:35;;;;;;;56.53;9.85;;;;;;;;;;4991456;28;20041;-86
2024/01/04 09:11:03;;;;;;;42.35;8.35;;;;;;;;;;4990717;28;20544;-86
2024/01/04 09:13:30;;;;;;;44.13;9.93;;;;;;;;;;4992073;28;20605;-86
2024/01/04 09:15:58;;;;;;;80.07;9.32;;;;;;;;;;4972802;28;20045;-85
2024/01/04 09:18:24;;;;;;;37.00;7.28;;;;;;;;;;4991037;28;20478;-86
2024/01/04 09:20:51;;;;;;;62.33;8.25;;;;;;;;;;4974863;28;20069;-85
2024/01/04 09:23:18;;;;;;;39.65;8.40;;;;;;;;;;4990771;28;20041;-87
2024/01/04 09:25:45;;;;;;;45.50;8.85;;;;;;;;;;4992310;28;20034;-86
2024/01/04 09:28:12;;;;;;;24.02;7.35;;;;;;;;;;4990679;28;20490;-86
2024/01/04 09:30:38;;;;;;;64.45;10.82;;;;;;;;;;4991618;28;20043;-86
2024/01/04 09:33:07;;;;;;;31.40;7.90;;;;;;;;;;4974240;28;20389;-85
2024/01/04 09:35:34;;;;;;;88.53;10.65;;;;;;;;;;4990437;28;20393;-86
2024/01/04 09:38:01;;;;;;;53.38;9.43;;;;;;;;;;4990552;28;20058;-85
2024/01/04 09:40:28;;;;;;;19.77;7.68;;;;;;;;;;4991444;28;20594;-86
2024/01/04 09:42:57;;;;;;;20.38;6.25;;;;;;;;;;4974906;28;20485;-85
2024/01/04 09:45:28;;;;;;;66.28;8.95;;;;;;;;;;4972896;28;20054;-85
2024/01/04 09:47:56;;;;;;;86.32;9.85;;;;;;;;;;4986526;28;20388;-86
2024/01/04 09:50:23;;;;;;;13.90;6.30;;;;;;;;;;4974590;28;20551;-85
2024/01/04 09:52:51;;;;;;;36.63;7.88;;;;;;;;;;4990370;28;20046;-86
2024/01/04 09:55:18;;;;;;;45.72;8.45;;;;;;;;;;4987089;28;20030;-85
2024/01/04 09:57:45;;;;;;;37.25;7.32;;;;;;;;;;4973425;28;20053;-85
2024/01/04 10:00:12;;;;;;;26.88;7.43;;;;;;;;;;4979512;28;20057;-85
2024/01/04 10:02:40;;;;;;;40.47;7.95;;;;;;;;;;5021870;28;20530;-85
2024/01/04 10:05:11;;;;;;;37.90;7.82;;;;;;;;;;5012575;28;20041;-85
2024/01/04 10:07:43;;;;;;;30.70;6.47;;;;;;;;;;5031063;28;20542;-85
2024/01/04 10:10:13;;;;;;;31.65;6.85;;;;;;;;;;5012421;28;20567;-86
2024/01/04 10:12:42;;;;;;;54.13;6.80;;;;;;;;;;5011035;28;20519;-88
2024/01/04 10:15:11;;;;;;;75.30;8.63;;;;;;;;;;5028396;28;20128;-86
2024/01/04 10:17:39;;;;;;;42.97;6.45;;;;;;;;;;4995370;28;20038;-86
2024/01/04 10:20:07;;;;;;;63.50;8.45;;;;;;;;;;5014221;28;20480;-86
2024/01/04 10:22:34;;;;;;;76.82;9.30;;;;;;;;;;5015084;28;20034;-86
2024/01/04 10:25:08;;;;;;;17.70;5.38;;;;;;;;;;5017216;28;20035;-86
2024/01/04 10:27:35;;;;;;;;;;;;;;;;;;5016961;28;20049;-86
2024/01/04 10:30:04;;;;;;;75.95;9.00;;;;;;;;;;5016412;28;19928;-86
2024/01/04 10:32:31;;;;;;;78.55;9.10;;;;;;;;;;5026157;28;20041;-86
2024/01/04 10:35:06;;;;;;;25.58;6.72;;;;;;;;;;4995243;28;20041;-86
2024/01/04 10:37:33;;;;;;;72.05;8.65;;;;;;;;;;5004243;28;20044;-86
2024/01/04 10:40:05;;;;;;;84.55;9.77;;;;;;;;;;5026393;28;20807;-88
2024/01/04 10:42:32;;;;;;;96.82;10.15;;;;;;;;;;5027752;28;20392;-87
2024/01/04 10:44:59;;;;;;;127.80;13.00;;;;;;;;;;5001149;28;20034;-87
2024/01/04 10:47:27;;;;;;;112.22;10.93;;;;;;;;;;5010003;28;20431;-86
2024/01/04 10:49:56;;;;;;;100.40;10.38;;;;;;;;;;5009965;28;20049;-87
2024/01/04 10:52:26;;;;;;;40.03;6.50;;;;;;;;;;5003189;28;20033;-86
2024/01/04 10:54:56;;;;;;;73.85;9.05;;;;;;;;;;5025955;28;20041;-85
2024/01/04 10:57:23;;;;;;;88.95;11.10;;;;;;;;;;5010652;28;20489;-86
2024/01/04 10:59:50;;;;;;;40.88;7.22;;;;;;;;;;5005904;28;20114;-86
2024/01/04 11:02:18;;;;;;;62.75;8.82;;;;;;;;;;5001687;28;20057;-86
2024/01/04 11:04:45;;;;;;;120.95;11.80;;;;;;;;;;5028454;28;20036;-87
2024/01/04 11:07:14;;;;;;;94.30;10.02;;;;;;;;;;5025047;28;20040;-89
2024/01/04 11:09:41;;;;;;;21.20;5.05;;;;;;;;;;5007978;28;20861;-86
2024/01/04 11:12:08;;;;;;;94.97;10.50;;;;;;;;;;5024111;28;20041;-85
2024/01/04 11:14:35;;;;;;;195.68;16.25;;;;;;;;;;4996493;28;20047;-89
2024/01/04 11:17:01;;;;;;;71.97;8.27;;;;;;;;;;5025765;28;20048;-89
2024/01/04 11:19:47;;;;;;;106.22;10.90;;;;;;;;;;5005511;28;20046;-86
2024/01/04 11:22:21;;;;;;;45.60;6.28;;;;;;;;;;5015746;28;20033;-86
2024/01/04 11:25:09;;;;;;;175.13;15.45;;;;;;;;;;4980147;28;20038;-89
2024/01/04 11:27:36;;;;;;;58.08;7.60;;;;;;;;;;5014478;28;20481;-89
2024/01/04 11:30:04;;;;;;;108.55;10.70;;;;;;;;;;5005447;28;20037;-86
2024/01/04 11:32:31;;;;;;;48.55;7.50;;;;;;;;;;5015712;28;20048;-86
2024/01/04 11:35:02;;;;;;;40.00;7.10;;;;;;;;;;5016407;28;20037;-87
2024/01/04 11:37:31;;;;;;;60.35;7.97;;;;;;;;;;5015581;28;20042;-86
2024/01/04 11:39:59;;;;;;;56.10;7.57;;;;;;;;;;5012057;28;20091;-86
2024/01/04 11:42:30;;;;;;;23.48;6.88;;;;;;;;;;5015913;28;20037;-86
2024/01/04 11:45:02;;;;;;;44.40;7.95;;;;;;;;;;4995855;28;20070;-86
2024/01/04 11:47:34;;;;;;;61.58;9.15;;;;;;;;;;5016559;28;20052;-86
2024/01/04 11:50:03;;;;;;;115.15;12.38;;;;;;;;;;4999181;28;20045;-88
2024/01/04 11:52:39;;;;;;;58.58;8.85;;;;;;;;;;5000380;28;20638;-86
2024/01/04 11:55:06;;;;;;;32.72;7.75;;;;;;;;;;5015254;28;20048;-86
2024/01/04 11:57:33;;;;;;;46.85;8.48;;;;;;;;;;5015737;28;20504;-86
2024/01/04 12:00:10;;;;;;;35.15;8.13;;;;;;;;;;5015433;28;20042;-86
2024/01/04 12:02:38;;;;;;;114.72;12.30;;;;;;;;;;4998689;28;20046;-86
2024/01/04 12:05:05;;;;;;;29.42;7.78;;;;;;;;;;5022568;28;20567;-86
2024/01/04 12:07:36;;;;;;;60.05;9.02;;;;;;;;;;5015640;28;20068;-86
2024/01/04 12:10:02;;;;;;;57.65;10.35;;;;;;;;;;5015204;28;20073;-86
2024/01/04 12:12:29;;;;;;;36.25;8.57;;;;;;;;;;5032766;28;20036;-86
2024/01/04 12:14:58;;;;;;;28.40;8.07;;;;;;;;;;5030327;28;20052;-86
2024/01/04 12:17:25;;;;;;;53.70;9.90;;;;;;;;;;5015040;28;20026;-86
2024/01/04 12:19:51;;;;;;;44.97;10.48;;;;;;;;;;4998429;28;20846;-87
2024/01/04 12:22:19;;;;;;;15.23;6.95;;;;;;;;;;5011743;28;20464;-85
2024/01/04 12:24:47;;;;;;;65.82;9.85;;;;;;;;;;5014464;28;20380;-86
2024/01/04 12:27:15;;;;;;;77.55;9.55;;;;;;;;;;5014744;28;20535;-87
2024/01/04 12:29:42;;;;;;;41.42;8.65;;;;;;;;;;5015040;28;20124;-86
2024/01/04 12:32:09;;;;;;;87.50;10.57;;;;;;;;;;5014477;28;20041;-85
2024/01/04 12:34:45;;;;;;;100.18;11.05;;;;;;;;;;5012265;28;20044;-86
2024/01/04 12:37:16;;;;;;;27.63;7.28;;;;;;;;;;5031412;28;20042;-86
2024/01/04 12:39:45;;;;;;;48.13;8.07;;;;;;;;;;5014147;28;20121;-85
2024/01/04 12:42:12;;;;;;;33.47;7.00;;;;;;;;;;5032326;28;20380;-86
2024/01/04 12:44:39;;;;;;;65.43;9.90;;;;;;;;;;5014427;28;20091;-86
2024/01/04 12:47:09;;;;;;;20.27;6.53;;;;;;;;;;4998747;28;20076;-85
2024/01/04 12:49:36;;;;;;;37.95;7.07;;;;;;;;;;5030566;28;20579;-86
2024/01/04 12:52:12;;;;;;;49.65;8.10;;;;;;;;;;5031329;28;20045;-86
2024/01/04 12:54:40;;;;;;;39.03;7.55;;;;;;;;;;5014281;28;20037;-86
2024/01/04 12:57:07;;;;;;;42.80;8.82;;;;;;;;;;5012962;28;20042;-85
2024/01/04 12:59:34;;;;;;;32.60;7.85;;;;;;;;;;5031704;28;20041;-85
2024/01/04 13:02:01;;;;;;;59.47;9.80;;;;;;;;;;5013840;28;20057;-86
2024/01/04 13:04:28;;;;;;;30.98;8.05;;;;;;;;;;5011723;28;20386;-87
2024/01/04 13:06:55;;;;;;;22.15;7.28;;;;;;;;;;5031924;28;20532;-86
2024/01/04 13:09:22;;;;;;;38.22;9.25;;;;;;;;;;5031959;28;20409;-86
2024/01/04 13:11:49;;;;;;;41.25;7.85;;;;;;;;;;5011840;28;20045;-86
2024/01/04 13:14:15;;;;;;;16.27;5.57;;;;;;;;;;5014044;28;20079;-85
2024/01/04 13:16:42;;;;;;;46.08;6.57;;;;;;;;;;5030210;28;20396;-86
2024/01/04 13:19:11;;;;;;;35.45;6.47;;;;;;;;;;5011275;28;20041;-85
2024/01/04 13:21:39;;;;;;;43.83;6.22;;;;;;;;;;5030404;28;20104;-85
2024/01/04 13:24:05;;;;;;;45.83;7.38;;;;;;;;;;5013251;28;20435;-86
2024/01/04 13:26:32;;;;;;;40.05;6.68;;;;;;;;;;5030607;28;20041;-85
2024/01/04 13:29:00;;;;;;;18.73;6.80;;;;;;;;;;5030905;28;20025;-86
2024/01/04 13:31:26;;;;;;;36.53;7.75;;;;;;;;;;4996775;28;20065;-85
2024/01/04 13:33:54;;;;;;;50.50;8.52;;;;;;;;;;5012848;28;20064;-86
2024/01/04 13:36:21;;;;;;;27.77;7.25;;;;;;;;;;5008860;28;20042;-85
2024/01/04 13:38:48;;;;;;;41.83;7.68;;;;;;;;;;5030230;28;20099;-85
2024/01/04 13:41:15;;;;;;;43.67;7.60;;;;;;;;;;5013422;28;20037;-86
2024/01/04 13:43:42;;;;;;;29.13;7.55;;;;;;;;;;5031116;28;20033;-86
2024/01/04 13:46:09;;;;;;;17.38;6.50;;;;;;;;;;5030924;28;20481;-86
2024/01/04 13:48:36;;;;;;;39.88;7.70;;;;;;;;;;5028859;28;20113;-86
2024/01/04 13:51:03;;;;;;;32.20;7.97;;;;;;;;;;4999482;28;20037;-85
2024/01/04 13:53:30;;;;;;;32.90;7.90;;;;;;;;;;5013175;28;20087;-86
2024/01/04 13:55:57;;;;;;;31.10;8.00;;;;;;;;;;4997092;28;20518;-86
2024/01/04 13:58:24;;;;;;;19.50;7.93;;;;;;;;;;5010462;28;20077;-86
2024/01/04 14:00:51;;;;;;;42.25;8.82;;;;;;;;;;5026933;28;20476;-86
2024/01/04 14:03:18;;;;;;;51.50;9.10;;;;;;;;;;5021055;28;20469;-85
2024/01/04 14:05:46;;;;;;;28.65;7.43;;;;;;;;;;5013915;28;20585;-86
2024/01/04 14:08:20;;;;;;;18.70;6.85;;;;;;;;;;4995350;28;20040;-85
2024/01/04 14:10:46;;;;;;;61.97;9.40;;;;;;;;;;5012580;28;20128;-86
2024/01/04 14:13:13;;;;;;;57.70;9.57;;;;;;;;;;5027923;28;20034;-86
2024/01/04 14:15:42;;;;;;;25.55;7.30;;;;;;;;;;5017874;28;20091;-85
2024/01/04 14:18:10;;;;;;;42.20;7.40;;;;;;;;;;5010445;28;20488;-86